sensor_id;sensor_type;location;lat;lon;timestamp;P1;durP1;ratioP1;P2;durP2;ratioP2
43160;SDS011;40968;52.342;5.528;2022-11-23T00:01:23;25.02;;;9.20;;
43160;SDS011;40968;52.342;5.528;2022-11-23T00:03:52;40.80;;;10.55;;
43160;SDS011;40968;52.342;5.528;2022-11-23T00:06:20;32.17;;;9.95;;
43160;SDS011;40968;52.342;5.528;2022-11-23T00:08:48;25.42;;;10.63;;
43160;SDS011;40968;52.342;5.528;2022-11-23T00:11:16;28.95;;;11.18;;
43160;SDS011;40968;52.342;5.528;2022-11-23T00:13:44;25.60;;;10.98;;
43160;SDS011;40968;52.342;5.528;2022-11-23T00:16:12;36.67;;;10.82;;
43160;SDS011;40968;52.342;5.528;2022-11-23T00:18:40;30.98;;;11.13;;
43160;SDS011;40968;52.342;5.528;2022-11-23T00:21:07;37.03;;;11.45;;
43160;SDS011;40968;52.342;5.528;2022-11-23T00:23:34;38.88;;;12.50;;
43160;SDS011;40968;52.342;5.528;2022-11-23T00:26:01;36.08;;;12.52;;
43160;SDS011;40968;52.342;5.528;2022-11-23T00:28:28;30.42;;;11.75;;
43160;SDS011;40968;52.342;5.528;2022-11-23T00:30:56;30.13;;;11.88;;
43160;SDS011;40968;52.342;5.528;2022-11-23T00:33:23;39.53;;;14.00;;
43160;SDS011;40968;52.342;5.528;2022-11-23T00:35:57;36.63;;;11.65;;
43160;SDS011;40968;52.342;5.528;2022-11-23T00:38:24;48.00;;;13.88;;
43160;SDS011;40968;52.342;5.528;2022-11-23T00:40:56;45.53;;;14.02;;
43160;SDS011;40968;52.342;5.528;2022-11-23T00:43:23;39.38;;;13.35;;
43160;SDS011;40968;52.342;5.528;2022-11-23T00:45:49;43.42;;;15.20;;
43160;SDS011;40968;52.342;5.528;2022-11-23T00:48:17;37.70;;;13.27;;
43160;SDS011;40968;52.342;5.528;2022-11-23T00:50:44;33.22;;;11.63;;
43160;SDS011;40968;52.342;5.528;2022-11-23T00:53:10;41.58;;;13.85;;
43160;SDS011;40968;52.342;5.528;2022-11-23T00:55:37;47.28;;;14.60;;
43160;SDS011;40968;52.342;5.528;2022-11-23T00:58:04;42.10;;;14.70;;
43160;SDS011;40968;52.342;5.528;2022-11-23T01:00:31;46.58;;;15.77;;
43160;SDS011;40968;52.342;5.528;2022-11-23T01:02:57;48.05;;;16.25;;
43160;SDS011;40968;52.342;5.528;2022-11-23T01:05:25;50.75;;;16.45;;
43160;SDS011;40968;52.342;5.528;2022-11-23T01:07:52;48.75;;;16.45;;
43160;SDS011;40968;52.342;5.528;2022-11-23T01:10:19;57.15;;;18.00;;
43160;SDS011;40968;52.342;5.528;2022-11-23T01:12:45;52.90;;;17.90;;
43160;SDS011;40968;52.342;5.528;2022-11-23T01:15:12;59.45;;;18.40;;
43160;SDS011;40968;52.342;5.528;2022-11-23T01:17:39;49.25;;;16.15;;
43160;SDS011;40968;52.342;5.528;2022-11-23T01:20:06;63.05;;;18.00;;
43160;SDS011;40968;52.342;5.528;2022-11-23T01:22:35;58.47;;;17.80;;
43160;SDS011;40968;52.342;5.528;2022-11-23T01:25:02;46.70;;;18.30;;
43160;SDS011;40968;52.342;5.528;2022-11-23T01:27:29;54.47;;;17.98;;
43160;SDS011;40968;52.342;5.528;2022-11-23T01:29:56;54.42;;;17.60;;
43160;SDS011;40968;52.342;5.528;2022-11-23T01:32:22;65.72;;;17.75;;
43160;SDS011;40968;52.342;5.528;2022-11-23T01:34:49;59.13;;;19.83;;
43160;SDS011;40968;52.342;5.528;2022-11-23T01:37:16;61.67;;;18.90;;
43160;SDS011;40968;52.342;5.528;2022-11-23T01:39:44;63.63;;;20.23;;
43160;SDS011;40968;52.342;5.528;2022-11-23T01:42:10;60.17;;;18.60;;
43160;SDS011;40968;52.342;5.528;2022-11-23T01:44:37;60.63;;;20.73;;
43160;SDS011;40968;52.342;5.528;2022-11-23T01:47:04;66.07;;;20.10;;
43160;SDS011;40968;52.342;5.528;2022-11-23T01:49:32;67.55;;;20.85;;
43160;SDS011;40968;52.342;5.528;2022-11-23T01:52:03;66.15;;;20.17;;
43160;SDS011;40968;52.342;5.528;2022-11-23T01:54:33;62.08;;;18.58;;
43160;SDS011;40968;52.342;5.528;2022-11-23T01:57:05;68.78;;;21.23;;
43160;SDS011;40968;52.342;5.528;2022-11-23T01:59:35;60.35;;;20.52;;
43160;SDS011;40968;52.342;5.528;2022-11-23T02:02:02;57.47;;;19.58;;
43160;SDS011;40968;52.342;5.528;2022-11-23T02:04:30;52.38;;;18.90;;
43160;SDS011;40968;52.342;5.528;2022-11-23T02:07:00;61.33;;;19.25;;
43160;SDS011;40968;52.342;5.528;2022-11-23T02:09:28;58.22;;;19.90;;
43160;SDS011;40968;52.342;5.528;2022-11-23T02:11:56;71.05;;;20.33;;
43160;SDS011;40968;52.342;5.528;2022-11-23T02:14:25;71.72;;;21.45;;
43160;SDS011;40968;52.342;5.528;2022-11-23T02:16:51;73.13;;;22.10;;
43160;SDS011;40968;52.342;5.528;2022-11-23T02:19:26;56.40;;;19.02;;
43160;SDS011;40968;52.342;5.528;2022-11-23T02:24:27;61.10;;;20.15;;
43160;SDS011;40968;52.342;5.528;2022-11-23T02:27:00;65.40;;;19.60;;
43160;SDS011;40968;52.342;5.528;2022-11-23T02:29:27;64.38;;;20.42;;
43160;SDS011;40968;52.342;5.528;2022-11-23T02:31:54;53.90;;;18.15;;
43160;SDS011;40968;52.342;5.528;2022-11-23T02:34:21;71.35;;;21.25;;
43160;SDS011;40968;52.342;5.528;2022-11-23T02:36:48;57.00;;;17.75;;
43160;SDS011;40968;52.342;5.528;2022-11-23T02:39:17;60.80;;;20.55;;
43160;SDS011;40968;52.342;5.528;2022-11-23T02:41:48;69.25;;;18.42;;
43160;SDS011;40968;52.342;5.528;2022-11-23T02:44:19;66.40;;;20.83;;
43160;SDS011;40968;52.342;5.528;2022-11-23T02:46:54;74.28;;;20.17;;
43160;SDS011;40968;52.342;5.528;2022-11-23T02:49:20;57.53;;;19.65;;
43160;SDS011;40968;52.342;5.528;2022-11-23T02:51:47;57.47;;;18.58;;
43160;SDS011;40968;52.342;5.528;2022-11-23T02:54:14;59.33;;;18.25;;
43160;SDS011;40968;52.342;5.528;2022-11-23T02:56:40;56.20;;;18.33;;
43160;SDS011;40968;52.342;5.528;2022-11-23T02:59:07;56.25;;;16.63;;
43160;SDS011;40968;52.342;5.528;2022-11-23T03:01:35;58.90;;;18.45;;
43160;SDS011;40968;52.342;5.528;2022-11-23T03:04:03;56.55;;;18.35;;
43160;SDS011;40968;52.342;5.528;2022-11-23T03:06:30;58.67;;;16.92;;
43160;SDS011;40968;52.342;5.528;2022-11-23T03:08:57;50.92;;;16.55;;
43160;SDS011;40968;52.342;5.528;2022-11-23T03:11:23;51.45;;;15.52;;
43160;SDS011;40968;52.342;5.528;2022-11-23T03:13:50;56.95;;;16.73;;
43160;SDS011;40968;52.342;5.528;2022-11-23T03:16:16;46.78;;;16.48;;
43160;SDS011;40968;52.342;5.528;2022-11-23T03:18:44;56.97;;;16.50;;
43160;SDS011;40968;52.342;5.528;2022-11-23T03:21:11;42.25;;;15.10;;
43160;SDS011;40968;52.342;5.528;2022-11-23T03:23:38;55.45;;;16.65;;
43160;SDS011;40968;52.342;5.528;2022-11-23T03:26:04;54.08;;;15.80;;
43160;SDS011;40968;52.342;5.528;2022-11-23T03:28:31;45.30;;;15.18;;
43160;SDS011;40968;52.342;5.528;2022-11-23T03:30:57;46.45;;;13.98;;
43160;SDS011;40968;52.342;5.528;2022-11-23T03:33:24;56.60;;;15.45;;
43160;SDS011;40968;52.342;5.528;2022-11-23T03:35:52;47.97;;;13.73;;
43160;SDS011;40968;52.342;5.528;2022-11-23T03:38:18;48.47;;;14.00;;
43160;SDS011;40968;52.342;5.528;2022-11-23T03:40:45;38.22;;;12.95;;
43160;SDS011;40968;52.342;5.528;2022-11-23T03:43:12;40.47;;;13.50;;
43160;SDS011;40968;52.342;5.528;2022-11-23T03:45:40;37.80;;;12.07;;
43160;SDS011;40968;52.342;5.528;2022-11-23T03:48:07;44.35;;;13.63;;
43160;SDS011;40968;52.342;5.528;2022-11-23T03:50:33;40.22;;;13.27;;
43160;SDS011;40968;52.342;5.528;2022-11-23T03:53:01;38.00;;;12.95;;
43160;SDS011;40968;52.342;5.528;2022-11-23T03:55:28;39.60;;;11.80;;
43160;SDS011;40968;52.342;5.528;2022-11-23T03:57:55;39.28;;;12.18;;
43160;SDS011;40968;52.342;5.528;2022-11-23T04:00:23;34.70;;;11.68;;
43160;SDS011;40968;52.342;5.528;2022-11-23T04:02:50;34.03;;;11.27;;
43160;SDS011;40968;52.342;5.528;2022-11-23T04:05:17;41.47;;;11.93;;
43160;SDS011;40968;52.342;5.528;2022-11-23T04:07:44;32.90;;;12.18;;
43160;SDS011;40968;52.342;5.528;2022-11-23T04:10:13;31.58;;;10.38;;
43160;SDS011;40968;52.342;5.528;2022-11-23T04:12:40;36.08;;;10.70;;
43160;SDS011;40968;52.342;5.528;2022-11-23T04:15:07;33.30;;;9.18;;
43160;SDS011;40968;52.342;5.528;2022-11-23T04:17:34;23.50;;;9.88;;
43160;SDS011;40968;52.342;5.528;2022-11-23T04:20:00;32.75;;;9.95;;
43160;SDS011;40968;52.342;5.528;2022-11-23T04:22:27;33.60;;;10.30;;
43160;SDS011;40968;52.342;5.528;2022-11-23T04:24:54;24.50;;;9.48;;
43160;SDS011;40968;52.342;5.528;2022-11-23T04:27:22;31.63;;;9.82;;
43160;SDS011;40968;52.342;5.528;2022-11-23T04:29:48;25.35;;;9.65;;
43160;SDS011;40968;52.342;5.528;2022-11-23T04:32:15;34.75;;;11.30;;
43160;SDS011;40968;52.342;5.528;2022-11-23T04:34:41;29.88;;;10.25;;
43160;SDS011;40968;52.342;5.528;2022-11-23T04:37:08;29.67;;;9.93;;
43160;SDS011;40968;52.342;5.528;2022-11-23T04:39:34;27.60;;;9.35;;
43160;SDS011;40968;52.342;5.528;2022-11-23T04:42:01;26.27;;;9.30;;
43160;SDS011;40968;52.342;5.528;2022-11-23T04:44:29;30.40;;;9.40;;
43160;SDS011;40968;52.342;5.528;2022-11-23T04:46:56;29.08;;;9.15;;
43160;SDS011;40968;52.342;5.528;2022-11-23T04:49:22;29.85;;;9.80;;
43160;SDS011;40968;52.342;5.528;2022-11-23T04:51:49;24.75;;;8.32;;
43160;SDS011;40968;52.342;5.528;2022-11-23T04:54:15;25.52;;;8.15;;
43160;SDS011;40968;52.342;5.528;2022-11-23T04:56:42;29.20;;;9.30;;
43160;SDS011;40968;52.342;5.528;2022-11-23T04:59:08;26.05;;;7.95;;
43160;SDS011;40968;52.342;5.528;2022-11-23T05:01:36;19.98;;;7.43;;
43160;SDS011;40968;52.342;5.528;2022-11-23T05:04:03;28.65;;;8.23;;
43160;SDS011;40968;52.342;5.528;2022-11-23T05:06:30;19.90;;;7.30;;
43160;SDS011;40968;52.342;5.528;2022-11-23T05:08:56;29.40;;;8.18;;
43160;SDS011;40968;52.342;5.528;2022-11-23T05:11:23;21.75;;;7.47;;
43160;SDS011;40968;52.342;5.528;2022-11-23T05:13:51;22.55;;;7.35;;
43160;SDS011;40968;52.342;5.528;2022-11-23T05:16:17;25.55;;;7.03;;
43160;SDS011;40968;52.342;5.528;2022-11-23T05:18:45;23.80;;;7.95;;
43160;SDS011;40968;52.342;5.528;2022-11-23T05:21:12;27.17;;;7.68;;
43160;SDS011;40968;52.342;5.528;2022-11-23T05:23:38;23.30;;;7.40;;
43160;SDS011;40968;52.342;5.528;2022-11-23T05:26:05;21.10;;;7.95;;
43160;SDS011;40968;52.342;5.528;2022-11-23T05:28:31;20.33;;;7.00;;
43160;SDS011;40968;52.342;5.528;2022-11-23T05:30:58;31.25;;;9.40;;
43160;SDS011;40968;52.342;5.528;2022-11-23T05:33:25;25.40;;;8.10;;
43160;SDS011;40968;52.342;5.528;2022-11-23T05:35:53;27.23;;;8.05;;
43160;SDS011;40968;52.342;5.528;2022-11-23T05:38:19;30.52;;;7.38;;
43160;SDS011;40968;52.342;5.528;2022-11-23T05:40:46;33.22;;;7.38;;
43160;SDS011;40968;52.342;5.528;2022-11-23T05:43:12;22.58;;;7.78;;
43160;SDS011;40968;52.342;5.528;2022-11-23T05:45:39;21.23;;;7.43;;
43160;SDS011;40968;52.342;5.528;2022-11-23T05:48:05;21.63;;;7.93;;
43160;SDS011;40968;52.342;5.528;2022-11-23T05:50:32;30.17;;;8.63;;
43160;SDS011;40968;52.342;5.528;2022-11-23T05:53:00;20.30;;;7.40;;
43160;SDS011;40968;52.342;5.528;2022-11-23T05:55:27;26.00;;;6.82;;
43160;SDS011;40968;52.342;5.528;2022-11-23T05:57:53;25.52;;;7.45;;
43160;SDS011;40968;52.342;5.528;2022-11-23T06:00:20;20.75;;;7.88;;
43160;SDS011;40968;52.342;5.528;2022-11-23T06:02:47;23.85;;;6.90;;
43160;SDS011;40968;52.342;5.528;2022-11-23T06:05:13;26.52;;;7.38;;
43160;SDS011;40968;52.342;5.528;2022-11-23T06:07:40;35.92;;;7.85;;
43160;SDS011;40968;52.342;5.528;2022-11-23T06:10:10;30.05;;;6.97;;
43160;SDS011;40968;52.342;5.528;2022-11-23T06:12:37;25.95;;;6.70;;
43160;SDS011;40968;52.342;5.528;2022-11-23T06:15:04;19.88;;;6.68;;
43160;SDS011;40968;52.342;5.528;2022-11-23T06:17:32;21.08;;;6.72;;
43160;SDS011;40968;52.342;5.528;2022-11-23T06:19:58;22.10;;;6.75;;
43160;SDS011;40968;52.342;5.528;2022-11-23T06:22:25;20.13;;;6.95;;
43160;SDS011;40968;52.342;5.528;2022-11-23T06:24:51;23.83;;;6.57;;
43160;SDS011;40968;52.342;5.528;2022-11-23T06:27:19;28.75;;;7.30;;
43160;SDS011;40968;52.342;5.528;2022-11-23T06:29:46;27.23;;;7.18;;
43160;SDS011;40968;52.342;5.528;2022-11-23T06:32:12;24.90;;;7.00;;
43160;SDS011;40968;52.342;5.528;2022-11-23T06:34:39;21.73;;;6.60;;
43160;SDS011;40968;52.342;5.528;2022-11-23T06:37:06;27.95;;;7.68;;
43160;SDS011;40968;52.342;5.528;2022-11-23T06:39:33;22.38;;;6.65;;
43160;SDS011;40968;52.342;5.528;2022-11-23T06:41:59;24.70;;;7.75;;
43160;SDS011;40968;52.342;5.528;2022-11-23T06:44:27;22.15;;;7.10;;
43160;SDS011;40968;52.342;5.528;2022-11-23T06:46:54;31.40;;;8.15;;
43160;SDS011;40968;52.342;5.528;2022-11-23T06:49:20;30.67;;;7.10;;
43160;SDS011;40968;52.342;5.528;2022-11-23T06:51:47;25.55;;;7.20;;
43160;SDS011;40968;52.342;5.528;2022-11-23T06:54:14;28.40;;;7.00;;
43160;SDS011;40968;52.342;5.528;2022-11-23T06:56:40;27.88;;;6.90;;
43160;SDS011;40968;52.342;5.528;2022-11-23T06:59:07;21.70;;;7.20;;
43160;SDS011;40968;52.342;5.528;2022-11-23T07:01:35;23.02;;;6.65;;
43160;SDS011;40968;52.342;5.528;2022-11-23T07:04:01;22.23;;;6.18;;
43160;SDS011;40968;52.342;5.528;2022-11-23T07:06:28;34.30;;;7.22;;
43160;SDS011;40968;52.342;5.528;2022-11-23T07:08:55;26.40;;;7.15;;
43160;SDS011;40968;52.342;5.528;2022-11-23T07:11:21;23.75;;;7.18;;
43160;SDS011;40968;52.342;5.528;2022-11-23T07:13:48;23.75;;;5.72;;
43160;SDS011;40968;52.342;5.528;2022-11-23T07:16:14;21.33;;;5.72;;
43160;SDS011;40968;52.342;5.528;2022-11-23T07:18:42;21.02;;;5.95;;
43160;SDS011;40968;52.342;5.528;2022-11-23T07:21:09;21.48;;;6.03;;
43160;SDS011;40968;52.342;5.528;2022-11-23T07:23:35;22.63;;;6.20;;
43160;SDS011;40968;52.342;5.528;2022-11-23T07:26:05;19.33;;;5.57;;
43160;SDS011;40968;52.342;5.528;2022-11-23T07:28:31;26.70;;;5.65;;
43160;SDS011;40968;52.342;5.528;2022-11-23T07:30:58;16.65;;;4.93;;
43160;SDS011;40968;52.342;5.528;2022-11-23T07:33:25;24.90;;;5.43;;
43160;SDS011;40968;52.342;5.528;2022-11-23T07:35:53;20.77;;;4.90;;
43160;SDS011;40968;52.342;5.528;2022-11-23T07:38:19;18.63;;;5.22;;
43160;SDS011;40968;52.342;5.528;2022-11-23T07:40:47;12.15;;;4.25;;
43160;SDS011;40968;52.342;5.528;2022-11-23T07:43:15;22.60;;;5.53;;
43160;SDS011;40968;52.342;5.528;2022-11-23T07:45:41;22.48;;;4.50;;
43160;SDS011;40968;52.342;5.528;2022-11-23T07:48:08;18.33;;;5.25;;
43160;SDS011;40968;52.342;5.528;2022-11-23T07:50:36;16.77;;;4.72;;
43160;SDS011;40968;52.342;5.528;2022-11-23T07:53:06;17.75;;;4.90;;
43160;SDS011;40968;52.342;5.528;2022-11-23T07:55:33;20.30;;;4.65;;
43160;SDS011;40968;52.342;5.528;2022-11-23T07:57:59;14.95;;;4.60;;
43160;SDS011;40968;52.342;5.528;2022-11-23T08:00:27;27.42;;;4.40;;
43160;SDS011;40968;52.342;5.528;2022-11-23T08:02:55;14.52;;;4.82;;
43160;SDS011;40968;52.342;5.528;2022-11-23T08:05:22;19.52;;;4.30;;
43160;SDS011;40968;52.342;5.528;2022-11-23T08:07:50;17.02;;;3.88;;
43160;SDS011;40968;52.342;5.528;2022-11-23T08:10:18;12.02;;;3.75;;
43160;SDS011;40968;52.342;5.528;2022-11-23T08:12:45;17.02;;;3.75;;
43160;SDS011;40968;52.342;5.528;2022-11-23T08:15:11;17.33;;;4.07;;
43160;SDS011;40968;52.342;5.528;2022-11-23T08:17:38;37.00;;;5.35;;
43160;SDS011;40968;52.342;5.528;2022-11-23T08:20:05;19.48;;;4.03;;
43160;SDS011;40968;52.342;5.528;2022-11-23T08:22:32;14.98;;;3.78;;
43160;SDS011;40968;52.342;5.528;2022-11-23T08:24:59;15.80;;;3.92;;
43160;SDS011;40968;52.342;5.528;2022-11-23T08:27:27;25.30;;;4.03;;
43160;SDS011;40968;52.342;5.528;2022-11-23T08:29:53;18.48;;;4.32;;
43160;SDS011;40968;52.342;5.528;2022-11-23T08:32:20;25.55;;;4.32;;
43160;SDS011;40968;52.342;5.528;2022-11-23T08:34:47;16.35;;;4.20;;
43160;SDS011;40968;52.342;5.528;2022-11-23T08:37:13;23.17;;;4.28;;
43160;SDS011;40968;52.342;5.528;2022-11-23T08:39:40;15.70;;;4.82;;
43160;SDS011;40968;52.342;5.528;2022-11-23T08:42:07;18.60;;;5.13;;
43160;SDS011;40968;52.342;5.528;2022-11-23T08:44:35;19.05;;;4.05;;
43160;SDS011;40968;52.342;5.528;2022-11-23T08:47:01;22.95;;;4.18;;
43160;SDS011;40968;52.342;5.528;2022-11-23T08:49:28;22.60;;;3.88;;
43160;SDS011;40968;52.342;5.528;2022-11-23T08:51:54;23.45;;;4.32;;
43160;SDS011;40968;52.342;5.528;2022-11-23T08:54:21;26.70;;;4.40;;
43160;SDS011;40968;52.342;5.528;2022-11-23T08:56:48;28.52;;;4.78;;
43160;SDS011;40968;52.342;5.528;2022-11-23T08:59:15;15.80;;;3.60;;
43160;SDS011;40968;52.342;5.528;2022-11-23T09:01:44;15.38;;;3.95;;
43160;SDS011;40968;52.342;5.528;2022-11-23T09:04:11;19.10;;;4.07;;
43160;SDS011;40968;52.342;5.528;2022-11-23T09:06:37;24.40;;;4.47;;
43160;SDS011;40968;52.342;5.528;2022-11-23T09:09:04;18.42;;;3.90;;
43160;SDS011;40968;52.342;5.528;2022-11-23T09:11:30;27.30;;;4.53;;
43160;SDS011;40968;52.342;5.528;2022-11-23T09:13:57;24.13;;;4.82;;
43160;SDS011;40968;52.342;5.528;2022-11-23T09:16:24;35.88;;;4.75;;
43160;SDS011;40968;52.342;5.528;2022-11-23T09:18:55;19.23;;;4.57;;
43160;SDS011;40968;52.342;5.528;2022-11-23T09:21:22;25.13;;;3.85;;
43160;SDS011;40968;52.342;5.528;2022-11-23T09:23:53;16.35;;;4.10;;
43160;SDS011;40968;52.342;5.528;2022-11-23T09:26:20;20.55;;;4.15;;
43160;SDS011;40968;52.342;5.528;2022-11-23T09:28:47;19.20;;;4.07;;
43160;SDS011;40968;52.342;5.528;2022-11-23T09:31:13;15.15;;;4.40;;
43160;SDS011;40968;52.342;5.528;2022-11-23T09:33:40;17.00;;;3.88;;
43160;SDS011;40968;52.342;5.528;2022-11-23T09:36:08;15.85;;;3.97;;
43160;SDS011;40968;52.342;5.528;2022-11-23T09:38:35;13.95;;;3.72;;
43160;SDS011;40968;52.342;5.528;2022-11-23T09:41:04;19.05;;;3.65;;
43160;SDS011;40968;52.342;5.528;2022-11-23T09:43:48;19.02;;;3.60;;
43160;SDS011;40968;52.342;5.528;2022-11-23T09:46:21;24.75;;;4.57;;
43160;SDS011;40968;52.342;5.528;2022-11-23T09:49:07;23.92;;;4.53;;
43160;SDS011;40968;52.342;5.528;2022-11-23T09:51:38;19.02;;;3.97;;
43160;SDS011;40968;52.342;5.528;2022-11-23T09:54:09;22.33;;;4.22;;
43160;SDS011;40968;52.342;5.528;2022-11-23T09:56:44;19.65;;;4.00;;
43160;SDS011;40968;52.342;5.528;2022-11-23T09:59:16;20.52;;;4.32;;
43160;SDS011;40968;52.342;5.528;2022-11-23T10:01:50;17.63;;;4.38;;
43160;SDS011;40968;52.342;5.528;2022-11-23T10:04:17;15.95;;;3.25;;
43160;SDS011;40968;52.342;5.528;2022-11-23T10:06:47;19.10;;;4.50;;
43160;SDS011;40968;52.342;5.528;2022-11-23T10:09:21;17.83;;;4.05;;
43160;SDS011;40968;52.342;5.528;2022-11-23T10:12:03;17.85;;;4.10;;
43160;SDS011;40968;52.342;5.528;2022-11-23T10:15:03;31.67;;;4.65;;
43160;SDS011;40968;52.342;5.528;2022-11-23T10:17:49;27.80;;;4.05;;
43160;SDS011;40968;52.342;5.528;2022-11-23T10:26:22;22.80;;;3.95;;
43160;SDS011;40968;52.342;5.528;2022-11-23T10:28:54;15.25;;;4.18;;
43160;SDS011;40968;52.342;5.528;2022-11-23T10:31:23;14.85;;;3.25;;
43160;SDS011;40968;52.342;5.528;2022-11-23T10:33:54;13.05;;;3.13;;
43160;SDS011;40968;52.342;5.528;2022-11-23T10:36:29;16.95;;;3.28;;
43160;SDS011;40968;52.342;5.528;2022-11-23T10:38:57;15.55;;;3.40;;
43160;SDS011;40968;52.342;5.528;2022-11-23T10:41:25;11.65;;;2.88;;
43160;SDS011;40968;52.342;5.528;2022-11-23T10:43:56;11.07;;;2.55;;
43160;SDS011;40968;52.342;5.528;2022-11-23T10:46:30;9.60;;;3.20;;
43160;SDS011;40968;52.342;5.528;2022-11-23T10:49:12;13.18;;;2.97;;
43160;SDS011;40968;52.342;5.528;2022-11-23T10:51:49;20.33;;;4.03;;
43160;SDS011;40968;52.342;5.528;2022-11-23T10:54:20;17.98;;;2.80;;
43160;SDS011;40968;52.342;5.528;2022-11-23T10:56:51;13.70;;;3.40;;
43160;SDS011;40968;52.342;5.528;2022-11-23T10:59:29;10.05;;;3.05;;
43160;SDS011;40968;52.342;5.528;2022-11-23T11:01:58;16.70;;;3.20;;
43160;SDS011;40968;52.342;5.528;2022-11-23T11:04:26;18.63;;;3.70;;
43160;SDS011;40968;52.342;5.528;2022-11-23T11:07:02;16.45;;;3.72;;
43160;SDS011;40968;52.342;5.528;2022-11-23T11:09:37;14.60;;;3.90;;
43160;SDS011;40968;52.342;5.528;2022-11-23T11:12:04;13.43;;;2.92;;
43160;SDS011;40968;52.342;5.528;2022-11-23T11:14:34;12.13;;;2.97;;
43160;SDS011;40968;52.342;5.528;2022-11-23T11:17:01;17.45;;;3.45;;
43160;SDS011;40968;52.342;5.528;2022-11-23T11:19:28;13.55;;;3.70;;
43160;SDS011;40968;52.342;5.528;2022-11-23T11:21:56;12.68;;;3.17;;
43160;SDS011;40968;52.342;5.528;2022-11-23T11:24:26;11.38;;;2.95;;
43160;SDS011;40968;52.342;5.528;2022-11-23T11:26:58;16.40;;;3.50;;
43160;SDS011;40968;52.342;5.528;2022-11-23T11:29:28;14.73;;;3.22;;
43160;SDS011;40968;52.342;5.528;2022-11-23T11:31:58;17.90;;;3.13;;
43160;SDS011;40968;52.342;5.528;2022-11-23T11:34:30;30.95;;;4.65;;
43160;SDS011;40968;52.342;5.528;2022-11-23T11:37:07;11.27;;;3.50;;
43160;SDS011;40968;52.342;5.528;2022-11-23T11:39:39;15.18;;;3.10;;
43160;SDS011;40968;52.342;5.528;2022-11-23T11:42:14;14.40;;;3.55;;
43160;SDS011;40968;52.342;5.528;2022-11-23T11:44:44;15.90;;;2.80;;
43160;SDS011;40968;52.342;5.528;2022-11-23T11:47:24;11.70;;;3.00;;
43160;SDS011;40968;52.342;5.528;2022-11-23T11:49:55;11.68;;;3.17;;
43160;SDS011;40968;52.342;5.528;2022-11-23T11:52:26;10.10;;;2.90;;
43160;SDS011;40968;52.342;5.528;2022-11-23T11:54:55;13.23;;;2.92;;
43160;SDS011;40968;52.342;5.528;2022-11-23T11:57:30;16.10;;;3.63;;
43160;SDS011;40968;52.342;5.528;2022-11-23T12:00:02;13.15;;;3.70;;
43160;SDS011;40968;52.342;5.528;2022-11-23T12:02:36;15.35;;;3.55;;
43160;SDS011;40968;52.342;5.528;2022-11-23T12:05:09;12.93;;;3.00;;
43160;SDS011;40968;52.342;5.528;2022-11-23T12:07:42;12.77;;;3.05;;
43160;SDS011;40968;52.342;5.528;2022-11-23T12:10:14;6.78;;;2.75;;
43160;SDS011;40968;52.342;5.528;2022-11-23T12:12:47;16.10;;;3.05;;
43160;SDS011;40968;52.342;5.528;2022-11-23T12:15:15;14.82;;;3.50;;
43160;SDS011;40968;52.342;5.528;2022-11-23T12:17:51;13.77;;;2.97;;
43160;SDS011;40968;52.342;5.528;2022-11-23T12:20:38;10.00;;;3.30;;
43160;SDS011;40968;52.342;5.528;2022-11-23T12:23:16;9.05;;;2.60;;
43160;SDS011;40968;52.342;5.528;2022-11-23T12:25:57;26.42;;;3.35;;
43160;SDS011;40968;52.342;5.528;2022-11-23T12:28:42;10.40;;;2.38;;
43160;SDS011;40968;52.342;5.528;2022-11-23T12:31:21;16.85;;;3.03;;
43160;SDS011;40968;52.342;5.528;2022-11-23T12:34:01;18.63;;;2.85;;
43160;SDS011;40968;52.342;5.528;2022-11-23T12:36:42;14.73;;;2.60;;
43160;SDS011;40968;52.342;5.528;2022-11-23T12:39:23;6.78;;;2.42;;
43160;SDS011;40968;52.342;5.528;2022-11-23T12:42:07;16.77;;;2.78;;
43160;SDS011;40968;52.342;5.528;2022-11-23T12:44:46;13.15;;;2.65;;
43160;SDS011;40968;52.342;5.528;2022-11-23T12:47:22;6.72;;;2.40;;
43160;SDS011;40968;52.342;5.528;2022-11-23T12:49:59;8.75;;;2.40;;
43160;SDS011;40968;52.342;5.528;2022-11-23T12:52:38;13.75;;;2.88;;
43160;SDS011;40968;52.342;5.528;2022-11-23T12:55:17;9.05;;;2.33;;
43160;SDS011;40968;52.342;5.528;2022-11-23T12:57:51;15.98;;;4.05;;
43160;SDS011;40968;52.342;5.528;2022-11-23T13:00:26;9.23;;;2.20;;
43160;SDS011;40968;52.342;5.528;2022-11-23T13:06:12;10.55;;;2.60;;
43160;SDS011;40968;52.342;5.528;2022-11-23T13:09:15;13.90;;;2.47;;
43160;SDS011;40968;52.342;5.528;2022-11-23T13:11:55;16.67;;;2.70;;
43160;SDS011;40968;52.342;5.528;2022-11-23T13:14:34;7.55;;;2.00;;
43160;SDS011;40968;52.342;5.528;2022-11-23T13:17:20;11.38;;;2.25;;
43160;SDS011;40968;52.342;5.528;2022-11-23T13:20:02;8.90;;;2.30;;
43160;SDS011;40968;52.342;5.528;2022-11-23T13:22:39;13.80;;;2.17;;
43160;SDS011;40968;52.342;5.528;2022-11-23T13:25:13;7.50;;;2.33;;
43160;SDS011;40968;52.342;5.528;2022-11-23T13:27:55;10.43;;;2.20;;
43160;SDS011;40968;52.342;5.528;2022-11-23T13:30:25;9.27;;;2.40;;
43160;SDS011;40968;52.342;5.528;2022-11-23T13:32:59;10.82;;;2.00;;
43160;SDS011;40968;52.342;5.528;2022-11-23T13:35:46;5.35;;;2.00;;
43160;SDS011;40968;52.342;5.528;2022-11-23T13:38:18;7.60;;;2.33;;
43160;SDS011;40968;52.342;5.528;2022-11-23T13:40:50;11.13;;;2.30;;
43160;SDS011;40968;52.342;5.528;2022-11-23T13:43:18;13.13;;;2.60;;
43160;SDS011;40968;52.342;5.528;2022-11-23T13:48:54;8.15;;;1.90;;
43160;SDS011;40968;52.342;5.528;2022-11-23T13:51:24;10.48;;;2.17;;
43160;SDS011;40968;52.342;5.528;2022-11-23T13:53:56;7.30;;;1.80;;
43160;SDS011;40968;52.342;5.528;2022-11-23T13:56:30;14.23;;;2.22;;
43160;SDS011;40968;52.342;5.528;2022-11-23T14:04:53;6.72;;;1.88;;
43160;SDS011;40968;52.342;5.528;2022-11-23T14:08:09;8.23;;;1.90;;
43160;SDS011;40968;52.342;5.528;2022-11-23T14:10:37;5.90;;;1.75;;
43160;SDS011;40968;52.342;5.528;2022-11-23T14:13:07;9.23;;;1.90;;
43160;SDS011;40968;52.342;5.528;2022-11-23T14:15:41;10.02;;;2.42;;
43160;SDS011;40968;52.342;5.528;2022-11-23T14:18:21;6.38;;;2.20;;
43160;SDS011;40968;52.342;5.528;2022-11-23T14:21:11;10.45;;;2.03;;
43160;SDS011;40968;52.342;5.528;2022-11-23T14:26:47;16.60;;;3.58;;
43160;SDS011;40968;52.342;5.528;2022-11-23T14:29:27;15.32;;;2.97;;
43160;SDS011;40968;52.342;5.528;2022-11-23T14:32:12;12.68;;;2.22;;
43160;SDS011;40968;52.342;5.528;2022-11-23T14:34:52;7.00;;;2.00;;
43160;SDS011;40968;52.342;5.528;2022-11-23T14:37:31;12.57;;;2.20;;
43160;SDS011;40968;52.342;5.528;2022-11-23T14:40:11;9.30;;;2.17;;
43160;SDS011;40968;52.342;5.528;2022-11-23T14:42:44;20.88;;;3.15;;
43160;SDS011;40968;52.342;5.528;2022-11-23T14:45:16;9.02;;;2.40;;
43160;SDS011;40968;52.342;5.528;2022-11-23T14:47:45;13.05;;;2.58;;
43160;SDS011;40968;52.342;5.528;2022-11-23T14:50:22;7.57;;;2.45;;
43160;SDS011;40968;52.342;5.528;2022-11-23T14:52:51;10.63;;;2.10;;
43160;SDS011;40968;52.342;5.528;2022-11-23T14:55:19;10.32;;;3.20;;
43160;SDS011;40968;52.342;5.528;2022-11-23T14:57:49;15.15;;;2.75;;
43160;SDS011;40968;52.342;5.528;2022-11-23T15:00:23;8.38;;;2.65;;
43160;SDS011;40968;52.342;5.528;2022-11-23T15:02:56;10.55;;;2.50;;
43160;SDS011;40968;52.342;5.528;2022-11-23T15:05:27;8.43;;;2.72;;
43160;SDS011;40968;52.342;5.528;2022-11-23T15:07:58;9.77;;;2.88;;
43160;SDS011;40968;52.342;5.528;2022-11-23T15:10:31;12.63;;;2.35;;